sensor_id;sensor_type;location;lat;lon;timestamp;P1;durP1;ratioP1;P2;durP2;ratioP2
25359;SDS011;13311;51.386;0.016;2023-12-20T00:04:58;8.45;;;2.60;;
25359;SDS011;13311;51.386;0.016;2023-12-20T00:09:59;11.13;;;2.50;;
25359;SDS011;13311;51.386;0.016;2023-12-20T00:15:00;5.70;;;2.30;;
25359;SDS011;13311;51.386;0.016;2023-12-20T00:20:00;10.07;;;2.97;;
25359;SDS011;13311;51.386;0.016;2023-12-20T00:25:01;8.95;;;2.75;;
25359;SDS011;13311;51.386;0.016;2023-12-20T00:30:02;9.20;;;2.50;;
25359;SDS011;13311;51.386;0.016;2023-12-20T00:35:03;4.70;;;2.25;;
25359;SDS011;13311;51.386;0.016;2023-12-20T00:40:04;14.77;;;3.92;;
25359;SDS011;13311;51.386;0.016;2023-12-20T00:45:06;8.45;;;2.15;;
25359;SDS011;13311;51.386;0.016;2023-12-20T00:50:08;6.70;;;2.13;;
25359;SDS011;13311;51.386;0.016;2023-12-20T00:55:09;12.73;;;2.85;;
25359;SDS011;13311;51.386;0.016;2023-12-20T01:00:10;10.10;;;2.70;;
25359;SDS011;13311;51.386;0.016;2023-12-20T01:05:11;7.35;;;2.20;;
25359;SDS011;13311;51.386;0.016;2023-12-20T01:10:12;7.93;;;2.10;;
25359;SDS011;13311;51.386;0.016;2023-12-20T01:15:12;10.20;;;2.78;;
25359;SDS011;13311;51.386;0.016;2023-12-20T01:20:13;6.15;;;2.92;;
25359;SDS011;13311;51.386;0.016;2023-12-20T01:25:14;11.48;;;2.70;;
25359;SDS011;13311;51.386;0.016;2023-12-20T01:30:15;13.25;;;2.72;;
25359;SDS011;13311;51.386;0.016;2023-12-20T01:35:15;11.82;;;3.17;;
25359;SDS011;13311;51.386;0.016;2023-12-20T01:40:16;5.70;;;2.00;;
25359;SDS011;13311;51.386;0.016;2023-12-20T01:45:17;11.38;;;2.53;;
25359;SDS011;13311;51.386;0.016;2023-12-20T01:50:17;7.68;;;1.63;;
25359;SDS011;13311;51.386;0.016;2023-12-20T01:55:19;8.20;;;1.98;;
25359;SDS011;13311;51.386;0.016;2023-12-20T02:00:20;11.00;;;2.47;;
25359;SDS011;13311;51.386;0.016;2023-12-20T02:05:23;6.60;;;2.03;;
25359;SDS011;13311;51.386;0.016;2023-12-20T02:10:25;13.07;;;2.65;;
25359;SDS011;13311;51.386;0.016;2023-12-20T02:15:27;10.40;;;2.45;;
25359;SDS011;13311;51.386;0.016;2023-12-20T02:20:28;16.05;;;2.38;;
25359;SDS011;13311;51.386;0.016;2023-12-20T02:25:31;14.88;;;3.75;;
25359;SDS011;13311;51.386;0.016;2023-12-20T02:30:32;19.13;;;3.22;;
25359;SDS011;13311;51.386;0.016;2023-12-20T02:35:33;8.93;;;2.50;;
25359;SDS011;13311;51.386;0.016;2023-12-20T02:40:34;7.57;;;2.10;;
25359;SDS011;13311;51.386;0.016;2023-12-20T02:45:34;9.98;;;2.50;;
25359;SDS011;13311;51.386;0.016;2023-12-20T02:50:35;10.27;;;3.08;;
25359;SDS011;13311;51.386;0.016;2023-12-20T02:55:36;12.02;;;2.50;;
25359;SDS011;13311;51.386;0.016;2023-12-20T03:00:37;11.77;;;2.63;;
25359;SDS011;13311;51.386;0.016;2023-12-20T03:05:37;5.05;;;2.03;;
25359;SDS011;13311;51.386;0.016;2023-12-20T03:10:38;10.23;;;2.35;;
25359;SDS011;13311;51.386;0.016;2023-12-20T03:15:39;12.38;;;2.40;;
25359;SDS011;13311;51.386;0.016;2023-12-20T03:20:40;12.60;;;2.75;;
25359;SDS011;13311;51.386;0.016;2023-12-20T03:25:41;9.27;;;2.55;;
25359;SDS011;13311;51.386;0.016;2023-12-20T03:30:42;15.70;;;2.42;;
25359;SDS011;13311;51.386;0.016;2023-12-20T03:35:43;7.57;;;1.98;;
25359;SDS011;13311;51.386;0.016;2023-12-20T03:40:44;11.80;;;2.70;;
25359;SDS011;13311;51.386;0.016;2023-12-20T03:45:44;25.63;;;2.92;;
25359;SDS011;13311;51.386;0.016;2023-12-20T03:50:45;16.17;;;2.83;;
25359;SDS011;13311;51.386;0.016;2023-12-20T03:55:47;11.35;;;3.03;;
25359;SDS011;13311;51.386;0.016;2023-12-20T04:00:47;8.90;;;2.67;;
25359;SDS011;13311;51.386;0.016;2023-12-20T04:05:48;17.30;;;3.55;;
25359;SDS011;13311;51.386;0.016;2023-12-20T04:10:49;10.80;;;2.50;;
25359;SDS011;13311;51.386;0.016;2023-12-20T04:15:50;9.63;;;2.95;;
25359;SDS011;13311;51.386;0.016;2023-12-20T04:20:51;14.00;;;2.63;;
25359;SDS011;13311;51.386;0.016;2023-12-20T04:25:53;11.00;;;2.55;;
25359;SDS011;13311;51.386;0.016;2023-12-20T04:30:54;12.35;;;2.85;;
25359;SDS011;13311;51.386;0.016;2023-12-20T04:35:55;13.02;;;2.33;;
25359;SDS011;13311;51.386;0.016;2023-12-20T04:40:57;9.88;;;2.88;;
25359;SDS011;13311;51.386;0.016;2023-12-20T04:45:58;10.75;;;2.70;;
25359;SDS011;13311;51.386;0.016;2023-12-20T04:50:59;13.05;;;2.92;;
25359;SDS011;13311;51.386;0.016;2023-12-20T04:56:00;10.23;;;3.03;;
25359;SDS011;13311;51.386;0.016;2023-12-20T05:01:01;10.80;;;3.03;;
25359;SDS011;13311;51.386;0.016;2023-12-20T05:06:03;12.07;;;2.47;;
25359;SDS011;13311;51.386;0.016;2023-12-20T05:11:04;17.73;;;3.58;;
25359;SDS011;13311;51.386;0.016;2023-12-20T05:16:05;13.27;;;3.17;;
25359;SDS011;13311;51.386;0.016;2023-12-20T05:21:06;17.30;;;3.55;;
25359;SDS011;13311;51.386;0.016;2023-12-20T05:26:07;14.93;;;3.25;;
25359;SDS011;13311;51.386;0.016;2023-12-20T05:31:07;14.68;;;3.15;;
25359;SDS011;13311;51.386;0.016;2023-12-20T05:36:09;7.80;;;2.85;;
25359;SDS011;13311;51.386;0.016;2023-12-20T05:41:11;10.05;;;2.85;;
25359;SDS011;13311;51.386;0.016;2023-12-20T05:46:12;16.20;;;3.20;;
25359;SDS011;13311;51.386;0.016;2023-12-20T05:51:13;9.95;;;2.60;;
25359;SDS011;13311;51.386;0.016;2023-12-20T05:56:13;10.60;;;3.60;;
25359;SDS011;13311;51.386;0.016;2023-12-20T06:01:14;10.60;;;2.83;;
25359;SDS011;13311;51.386;0.016;2023-12-20T06:06:17;7.47;;;1.95;;
25359;SDS011;13311;51.386;0.016;2023-12-20T06:11:17;11.07;;;2.17;;
25359;SDS011;13311;51.386;0.016;2023-12-20T06:16:18;12.82;;;3.40;;
25359;SDS011;13311;51.386;0.016;2023-12-20T06:21:19;17.25;;;3.25;;
25359;SDS011;13311;51.386;0.016;2023-12-20T06:26:20;13.18;;;3.53;;
25359;SDS011;13311;51.386;0.016;2023-12-20T06:31:20;17.60;;;3.03;;
25359;SDS011;13311;51.386;0.016;2023-12-20T06:36:21;14.65;;;3.35;;
25359;SDS011;13311;51.386;0.016;2023-12-20T06:41:22;12.18;;;2.83;;
25359;SDS011;13311;51.386;0.016;2023-12-20T06:46:24;11.73;;;3.13;;
25359;SDS011;13311;51.386;0.016;2023-12-20T06:51:26;9.65;;;2.45;;
25359;SDS011;13311;51.386;0.016;2023-12-20T06:56:27;7.65;;;1.83;;
25359;SDS011;13311;51.386;0.016;2023-12-20T07:01:28;15.10;;;3.88;;
25359;SDS011;13311;51.386;0.016;2023-12-20T07:06:34;11.68;;;3.72;;
25359;SDS011;13311;51.386;0.016;2023-12-20T07:11:34;10.77;;;3.10;;
25359;SDS011;13311;51.386;0.016;2023-12-20T07:16:35;16.33;;;3.47;;
25359;SDS011;13311;51.386;0.016;2023-12-20T07:21:36;16.15;;;3.10;;
25359;SDS011;13311;51.386;0.016;2023-12-20T07:26:37;15.45;;;3.05;;
25359;SDS011;13311;51.386;0.016;2023-12-20T07:31:38;6.70;;;2.58;;
25359;SDS011;13311;51.386;0.016;2023-12-20T07:36:39;8.57;;;2.55;;
25359;SDS011;13311;51.386;0.016;2023-12-20T07:41:40;10.60;;;2.53;;
25359;SDS011;13311;51.386;0.016;2023-12-20T07:46:40;13.05;;;2.85;;
25359;SDS011;13311;51.386;0.016;2023-12-20T07:51:41;10.57;;;2.78;;
25359;SDS011;13311;51.386;0.016;2023-12-20T07:56:42;18.75;;;3.40;;
25359;SDS011;13311;51.386;0.016;2023-12-20T08:01:43;15.07;;;3.42;;
25359;SDS011;13311;51.386;0.016;2023-12-20T08:06:44;14.88;;;3.25;;
25359;SDS011;13311;51.386;0.016;2023-12-20T08:11:45;12.30;;;3.08;;
25359;SDS011;13311;51.386;0.016;2023-12-20T08:16:47;18.98;;;3.28;;
25359;SDS011;13311;51.386;0.016;2023-12-20T08:21:48;17.83;;;3.10;;
25359;SDS011;13311;51.386;0.016;2023-12-20T08:26:48;11.80;;;2.97;;
25359;SDS011;13311;51.386;0.016;2023-12-20T08:31:52;25.67;;;3.88;;
25359;SDS011;13311;51.386;0.016;2023-12-20T08:36:56;21.27;;;3.78;;
25359;SDS011;13311;51.386;0.016;2023-12-20T08:41:57;14.25;;;3.20;;
25359;SDS011;13311;51.386;0.016;2023-12-20T08:46:58;16.70;;;3.20;;
25359;SDS011;13311;51.386;0.016;2023-12-20T08:51:59;14.10;;;3.40;;
25359;SDS011;13311;51.386;0.016;2023-12-20T08:56:59;13.45;;;3.08;;
25359;SDS011;13311;51.386;0.016;2023-12-20T09:02:01;13.32;;;3.45;;
25359;SDS011;13311;51.386;0.016;2023-12-20T09:07:02;10.65;;;3.13;;
25359;SDS011;13311;51.386;0.016;2023-12-20T09:12:03;11.38;;;3.05;;
25359;SDS011;13311;51.386;0.016;2023-12-20T09:17:04;19.45;;;3.05;;
25359;SDS011;13311;51.386;0.016;2023-12-20T09:22:05;17.67;;;3.20;;
25359;SDS011;13311;51.386;0.016;2023-12-20T09:27:06;12.88;;;3.08;;
25359;SDS011;13311;51.386;0.016;2023-12-20T09:32:07;17.27;;;3.58;;
25359;SDS011;13311;51.386;0.016;2023-12-20T09:37:08;8.98;;;3.00;;
25359;SDS011;13311;51.386;0.016;2023-12-20T09:42:08;10.35;;;3.00;;
25359;SDS011;13311;51.386;0.016;2023-12-20T09:47:13;14.25;;;3.70;;
25359;SDS011;13311;51.386;0.016;2023-12-20T09:52:18;8.82;;;3.25;;
25359;SDS011;13311;51.386;0.016;2023-12-20T09:57:22;15.77;;;3.40;;
25359;SDS011;13311;51.386;0.016;2023-12-20T10:02:23;12.93;;;3.22;;
25359;SDS011;13311;51.386;0.016;2023-12-20T10:07:29;15.43;;;3.72;;
25359;SDS011;13311;51.386;0.016;2023-12-20T10:12:30;15.35;;;3.15;;
25359;SDS011;13311;51.386;0.016;2023-12-20T10:17:31;6.75;;;2.33;;
25359;SDS011;13311;51.386;0.016;2023-12-20T10:22:33;13.13;;;2.40;;
25359;SDS011;13311;51.386;0.016;2023-12-20T10:27:34;10.50;;;2.80;;
25359;SDS011;13311;51.386;0.016;2023-12-20T10:32:35;8.05;;;2.40;;
25359;SDS011;13311;51.386;0.016;2023-12-20T10:37:36;18.30;;;2.72;;
25359;SDS011;13311;51.386;0.016;2023-12-20T10:42:38;9.05;;;2.60;;
25359;SDS011;13311;51.386;0.016;2023-12-20T10:47:40;12.73;;;2.75;;
25359;SDS011;13311;51.386;0.016;2023-12-20T10:52:44;4.72;;;1.70;;
25359;SDS011;13311;51.386;0.016;2023-12-20T10:57:47;6.85;;;1.80;;
25359;SDS011;13311;51.386;0.016;2023-12-20T11:02:51;9.05;;;2.28;;
25359;SDS011;13311;51.386;0.016;2023-12-20T11:13:17;8.02;;;1.85;;
25359;SDS011;13311;51.386;0.016;2023-12-20T11:18:32;8.68;;;1.92;;
25359;SDS011;13311;51.386;0.016;2023-12-20T11:23:32;14.00;;;1.95;;
25359;SDS011;13311;51.386;0.016;2023-12-20T11:28:34;10.40;;;2.08;;
25359;SDS011;13311;51.386;0.016;2023-12-20T11:33:37;10.35;;;2.63;;
25359;SDS011;13311;51.386;0.016;2023-12-20T11:38:39;9.90;;;2.50;;
25359;SDS011;13311;51.386;0.016;2023-12-20T11:44:10;6.38;;;1.83;;
25359;SDS011;13311;51.386;0.016;2023-12-20T11:49:11;4.85;;;1.48;;
25359;SDS011;13311;51.386;0.016;2023-12-20T11:54:13;9.57;;;2.13;;
25359;SDS011;13311;51.386;0.016;2023-12-20T11:59:16;8.68;;;1.80;;
25359;SDS011;13311;51.386;0.016;2023-12-20T12:04:18;5.05;;;1.70;;
25359;SDS011;13311;51.386;0.016;2023-12-20T12:09:19;6.63;;;1.98;;
25359;SDS011;13311;51.386;0.016;2023-12-20T12:14:20;5.40;;;1.70;;
25359;SDS011;13311;51.386;0.016;2023-12-20T12:19:24;5.47;;;1.77;;
25359;SDS011;13311;51.386;0.016;2023-12-20T12:24:26;7.20;;;1.92;;
25359;SDS011;13311;51.386;0.016;2023-12-20T12:29:27;6.57;;;2.03;;
25359;SDS011;13311;51.386;0.016;2023-12-20T12:34:28;6.55;;;1.63;;
25359;SDS011;13311;51.386;0.016;2023-12-20T12:39:29;5.70;;;1.73;;
25359;SDS011;13311;51.386;0.016;2023-12-20T12:44:30;3.75;;;1.30;;
25359;SDS011;13311;51.386;0.016;2023-12-20T12:49:31;4.43;;;1.45;;
25359;SDS011;13311;51.386;0.016;2023-12-20T12:54:32;4.95;;;1.48;;
25359;SDS011;13311;51.386;0.016;2023-12-20T12:59:33;6.65;;;1.33;;
25359;SDS011;13311;51.386;0.016;2023-12-20T13:04:33;3.83;;;1.17;;
25359;SDS011;13311;51.386;0.016;2023-12-20T13:09:34;5.95;;;1.58;;
25359;SDS011;13311;51.386;0.016;2023-12-20T13:14:35;6.68;;;1.50;;
25359;SDS011;13311;51.386;0.016;2023-12-20T13:19:39;3.55;;;1.15;;
25359;SDS011;13311;51.386;0.016;2023-12-20T13:24:40;3.75;;;1.73;;
25359;SDS011;13311;51.386;0.016;2023-12-20T13:29:40;4.65;;;1.08;;
25359;SDS011;13311;51.386;0.016;2023-12-20T13:34:41;5.95;;;1.63;;
25359;SDS011;13311;51.386;0.016;2023-12-20T13:39:42;3.60;;;1.55;;
25359;SDS011;13311;51.386;0.016;2023-12-20T13:44:43;2.75;;;1.00;;
25359;SDS011;13311;51.386;0.016;2023-12-20T13:49:44;4.07;;;1.20;;
25359;SDS011;13311;51.386;0.016;2023-12-20T13:54:45;2.90;;;1.08;;
25359;SDS011;13311;51.386;0.016;2023-12-20T13:59:46;2.75;;;0.90;;
25359;SDS011;13311;51.386;0.016;2023-12-20T14:04:46;2.97;;;0.98;;
25359;SDS011;13311;51.386;0.016;2023-12-20T14:09:47;3.25;;;1.00;;
25359;SDS011;13311;51.386;0.016;2023-12-20T14:14:49;6.93;;;1.27;;
25359;SDS011;13311;51.386;0.016;2023-12-20T14:19:49;5.00;;;1.35;;
25359;SDS011;13311;51.386;0.016;2023-12-20T14:24:51;2.55;;;1.10;;
25359;SDS011;13311;51.386;0.016;2023-12-20T14:29:54;5.15;;;1.10;;
25359;SDS011;13311;51.386;0.016;2023-12-20T14:34:55;3.85;;;1.30;;
25359;SDS011;13311;51.386;0.016;2023-12-20T14:39:56;2.47;;;1.02;;
25359;SDS011;13311;51.386;0.016;2023-12-20T14:44:57;3.40;;;1.58;;
25359;SDS011;13311;51.386;0.016;2023-12-20T14:49:58;2.72;;;1.10;;
25359;SDS011;13311;51.386;0.016;2023-12-20T14:54:58;4.63;;;1.45;;
25359;SDS011;13311;51.386;0.016;2023-12-20T15:00:03;2.70;;;1.25;;
25359;SDS011;13311;51.386;0.016;2023-12-20T15:05:07;6.22;;;1.10;;
25359;SDS011;13311;51.386;0.016;2023-12-20T15:10:08;2.33;;;1.10;;
25359;SDS011;13311;51.386;0.016;2023-12-20T15:15:09;3.13;;;1.10;;
25359;SDS011;13311;51.386;0.016;2023-12-20T15:20:11;4.65;;;1.42;;
25359;SDS011;13311;51.386;0.016;2023-12-20T15:25:11;3.00;;;0.90;;
25359;SDS011;13311;51.386;0.016;2023-12-20T15:30:21;4.22;;;1.30;;
25359;SDS011;13311;51.386;0.016;2023-12-20T15:35:24;3.60;;;1.40;;
25359;SDS011;13311;51.386;0.016;2023-12-20T15:40:25;6.13;;;1.60;;
25359;SDS011;13311;51.386;0.016;2023-12-20T15:45:26;4.80;;;1.95;;
25359;SDS011;13311;51.386;0.016;2023-12-20T15:50:27;4.85;;;1.58;;
25359;SDS011;13311;51.386;0.016;2023-12-20T15:55:27;4.85;;;1.75;;
25359;SDS011;13311;51.386;0.016;2023-12-20T16:00:28;4.90;;;1.90;;
25359;SDS011;13311;51.386;0.016;2023-12-20T16:05:31;6.20;;;1.30;;
25359;SDS011;13311;51.386;0.016;2023-12-20T16:10:31;7.05;;;1.77;;
25359;SDS011;13311;51.386;0.016;2023-12-20T16:15:32;3.50;;;1.40;;
25359;SDS011;13311;51.386;0.016;2023-12-20T16:20:33;6.97;;;2.15;;
25359;SDS011;13311;51.386;0.016;2023-12-20T16:25:34;4.32;;;1.42;;
25359;SDS011;13311;51.386;0.016;2023-12-20T16:30:37;4.18;;;1.85;;
25359;SDS011;13311;51.386;0.016;2023-12-20T16:35:38;3.15;;;1.40;;
25359;SDS011;13311;51.386;0.016;2023-12-20T16:40:39;6.63;;;2.00;;
25359;SDS011;13311;51.386;0.016;2023-12-20T16:45:40;5.30;;;2.03;;
25359;SDS011;13311;51.386;0.016;2023-12-20T16:50:41;2.58;;;1.20;;
25359;SDS011;13311;51.386;0.016;2023-12-20T16:55:42;4.95;;;1.35;;
25359;SDS011;13311;51.386;0.016;2023-12-20T17:00:44;3.08;;;1.13;;
25359;SDS011;13311;51.386;0.016;2023-12-20T17:05:45;6.18;;;1.60;;
25359;SDS011;13311;51.386;0.016;2023-12-20T17:10:45;7.57;;;1.73;;
25359;SDS011;13311;51.386;0.016;2023-12-20T17:15:46;4.95;;;1.20;;
25359;SDS011;13311;51.386;0.016;2023-12-20T17:20:47;7.05;;;1.88;;
25359;SDS011;13311;51.386;0.016;2023-12-20T17:25:48;4.32;;;1.10;;
25359;SDS011;13311;51.386;0.016;2023-12-20T17:30:49;4.22;;;1.55;;
25359;SDS011;13311;51.386;0.016;2023-12-20T17:35:50;7.82;;;1.70;;
25359;SDS011;13311;51.386;0.016;2023-12-20T17:40:52;5.05;;;1.50;;
25359;SDS011;13311;51.386;0.016;2023-12-20T17:45:55;4.10;;;1.52;;
25359;SDS011;13311;51.386;0.016;2023-12-20T17:50:56;7.35;;;1.83;;
25359;SDS011;13311;51.386;0.016;2023-12-20T17:55:56;4.80;;;1.45;;
25359;SDS011;13311;51.386;0.016;2023-12-20T18:00:57;5.88;;;1.67;;
25359;SDS011;13311;51.386;0.016;2023-12-20T18:05:58;7.97;;;1.77;;
25359;SDS011;13311;51.386;0.016;2023-12-20T18:10:59;5.85;;;1.92;;
25359;SDS011;13311;51.386;0.016;2023-12-20T18:16:00;7.45;;;1.90;;
25359;SDS011;13311;51.386;0.016;2023-12-20T18:21:01;9.20;;;2.45;;
25359;SDS011;13311;51.386;0.016;2023-12-20T18:26:02;4.80;;;1.92;;
25359;SDS011;13311;51.386;0.016;2023-12-20T18:31:03;6.13;;;1.52;;
25359;SDS011;13311;51.386;0.016;2023-12-20T18:36:04;9.40;;;2.45;;
25359;SDS011;13311;51.386;0.016;2023-12-20T18:41:05;5.70;;;1.70;;
25359;SDS011;13311;51.386;0.016;2023-12-20T18:46:06;4.90;;;1.75;;
25359;SDS011;13311;51.386;0.016;2023-12-20T18:51:07;7.00;;;2.03;;
25359;SDS011;13311;51.386;0.016;2023-12-20T18:56:08;9.55;;;2.92;;
25359;SDS011;13311;51.386;0.016;2023-12-20T19:01:09;11.02;;;2.90;;
25359;SDS011;13311;51.386;0.016;2023-12-20T19:06:09;9.35;;;2.40;;
25359;SDS011;13311;51.386;0.016;2023-12-20T19:11:11;4.88;;;2.00;;
25359;SDS011;13311;51.386;0.016;2023-12-20T19:16:12;10.35;;;2.92;;
25359;SDS011;13311;51.386;0.016;2023-12-20T19:21:14;10.93;;;2.28;;
25359;SDS011;13311;51.386;0.016;2023-12-20T19:26:15;11.23;;;3.10;;
25359;SDS011;13311;51.386;0.016;2023-12-20T19:31:15;13.57;;;2.88;;
25359;SDS011;13311;51.386;0.016;2023-12-20T19:36:16;10.93;;;3.25;;
25359;SDS011;13311;51.386;0.016;2023-12-20T19:41:17;13.23;;;4.80;;
25359;SDS011;13311;51.386;0.016;2023-12-20T19:46:18;9.13;;;4.22;;
25359;SDS011;13311;51.386;0.016;2023-12-20T19:51:19;11.25;;;3.78;;
25359;SDS011;13311;51.386;0.016;2023-12-20T19:56:20;10.82;;;3.92;;
25359;SDS011;13311;51.386;0.016;2023-12-20T20:01:22;13.13;;;4.03;;
25359;SDS011;13311;51.386;0.016;2023-12-20T20:06:24;12.27;;;4.43;;
25359;SDS011;13311;51.386;0.016;2023-12-20T20:11:25;18.30;;;5.13;;
25359;SDS011;13311;51.386;0.016;2023-12-20T20:16:26;19.73;;;5.13;;
25359;SDS011;13311;51.386;0.016;2023-12-20T20:21:26;18.98;;;5.47;;
25359;SDS011;13311;51.386;0.016;2023-12-20T20:26:27;17.20;;;4.65;;
25359;SDS011;13311;51.386;0.016;2023-12-20T20:31:28;16.70;;;4.32;;
25359;SDS011;13311;51.386;0.016;2023-12-20T20:36:33;23.75;;;5.93;;
25359;SDS011;13311;51.386;0.016;2023-12-20T20:41:34;24.48;;;5.28;;
25359;SDS011;13311;51.386;0.016;2023-12-20T20:46:35;17.30;;;4.75;;
25359;SDS011;13311;51.386;0.016;2023-12-20T20:51:36;18.95;;;4.93;;
25359;SDS011;13311;51.386;0.016;2023-12-20T20:56:36;23.08;;;7.22;;
25359;SDS011;13311;51.386;0.016;2023-12-20T21:01:37;22.02;;;6.32;;
25359;SDS011;13311;51.386;0.016;2023-12-20T21:06:38;20.30;;;5.85;;
25359;SDS011;13311;51.386;0.016;2023-12-20T21:11:39;20.40;;;5.72;;
25359;SDS011;13311;51.386;0.016;2023-12-20T21:16:40;31.73;;;6.45;;
25359;SDS011;13311;51.386;0.016;2023-12-20T21:21:41;19.70;;;5.07;;
25359;SDS011;13311;51.386;0.016;2023-12-20T21:26:42;24.23;;;6.13;;
25359;SDS011;13311;51.386;0.016;2023-12-20T21:31:42;22.13;;;5.45;;
25359;SDS011;13311;51.386;0.016;2023-12-20T21:36:43;24.40;;;6.00;;
25359;SDS011;13311;51.386;0.016;2023-12-20T21:41:44;21.30;;;5.47;;
25359;SDS011;13311;51.386;0.016;2023-12-20T21:46:45;19.52;;;5.07;;
25359;SDS011;13311;51.386;0.016;2023-12-20T21:51:46;19.10;;;5.38;;
25359;SDS011;13311;51.386;0.016;2023-12-20T21:56:47;17.63;;;5.28;;
25359;SDS011;13311;51.386;0.016;2023-12-20T22:01:51;22.65;;;6.53;;
25359;SDS011;13311;51.386;0.016;2023-12-20T22:06:52;20.38;;;5.60;;
25359;SDS011;13311;51.386;0.016;2023-12-20T22:11:53;16.25;;;4.38;;
25359;SDS011;13311;51.386;0.016;2023-12-20T22:16:55;17.77;;;4.13;;
25359;SDS011;13311;51.386;0.016;2023-12-20T22:21:57;14.70;;;3.58;;
25359;SDS011;13311;51.386;0.016;2023-12-20T22:26:58;23.05;;;3.65;;
25359;SDS011;13311;51.386;0.016;2023-12-20T22:32:00;10.50;;;3.53;;
25359;SDS011;13311;51.386;0.016;2023-12-20T22:37:01;11.13;;;3.15;;
25359;SDS011;13311;51.386;0.016;2023-12-20T22:42:03;11.93;;;2.55;;
25359;SDS011;13311;51.386;0.016;2023-12-20T22:47:04;9.98;;;2.08;;
25359;SDS011;13311;51.386;0.016;2023-12-20T22:52:05;6.45;;;2.13;;
25359;SDS011;13311;51.386;0.016;2023-12-20T22:57:06;4.40;;;1.65;;
25359;SDS011;13311;51.386;0.016;2023-12-20T23:02:09;8.43;;;2.30;;
25359;SDS011;13311;51.386;0.016;2023-12-20T23:07:10;7.78;;;1.80;;
25359;SDS011;13311;51.386;0.016;2023-12-20T23:12:11;9.55;;;1.90;;
25359;SDS011;13311;51.386;0.016;2023-12-20T23:17:12;3.95;;;1.55;;
25359;SDS011;13311;51.386;0.016;2023-12-20T23:22:13;6.10;;;1.80;;
25359;SDS011;13311;51.386;0.016;2023-12-20T23:27:13;6.85;;;1.50;;
25359;SDS011;13311;51.386;0.016;2023-12-20T23:32:14;8.90;;;2.15;;
25359;SDS011;13311;51.386;0.016;2023-12-20T23:37:15;6.65;;;1.92;;
25359;SDS011;13311;51.386;0.016;2023-12-20T23:42:16;5.88;;;1.55;;
25359;SDS011;13311;51.386;0.016;2023-12-20T23:47:20;5.20;;;1.30;;
25359;SDS011;13311;51.386;0.016;2023-12-20T23:52:20;7.95;;;1.85;;
25359;SDS011;13311;51.386;0.016;2023-12-20T23:57:21;7.03;;;2.17;;
